Time,TemperatureF,DewpointF,PressureIn,WindDirection,WindDirectionDegrees,WindSpeedMPH,WindSpeedGustMPH,Humidity,HourlyPrecipIn,Conditions,Clouds,dailyrainin,SolarRadiationWatts/m^2,SoftwareType,DateUTC
2013-09-03 00:02:00,68.0,35.0,-100.00,NNW,327,2.0,7.0,30,0.00,,,0.00,0.000000,,2013-09-03 06:02:00,
2013-09-03 00:12:00,68.0,35.0,-100.00,NNW,327,2.0,7.0,30,0.00,,,0.00,0.000000,,2013-09-03 06:12:00,
2013-09-03 00:22:00,68.0,35.0,-100.00,NNW,327,2.0,7.0,30,0.00,,,0.00,0.000000,,2013-09-03 06:22:00,
2013-09-03 00:30:00,67.0,40.0,-100.00,West,263,2.0,6.0,37,0.00,,,0.00,0.000000,,2013-09-03 06:30:00,
2013-09-03 00:52:00,67.0,40.0,-100.00,West,263,2.0,6.0,37,0.00,,,0.00,0.000000,,2013-09-03 06:52:00,
2013-09-03 01:02:00,67.0,40.0,-100.00,West,263,2.0,6.0,37,0.00,,,0.00,0.000000,,2013-09-03 07:02:00,
2013-09-03 01:12:00,67.0,40.0,-100.00,West,263,2.0,6.0,37,0.00,,,0.00,0.000000,,2013-09-03 07:12:00,
2013-09-03 01:22:00,67.0,40.0,-100.00,West,263,2.0,6.0,37,0.00,,,0.00,0.000000,,2013-09-03 07:22:00,
2013-09-03 01:30:00,62.0,35.0,-100.00,WNW,286,5.0,7.0,37,0.00,,,0.00,0.000000,,2013-09-03 07:30:00,
2013-09-03 01:52:00,62.0,35.0,-100.00,WNW,286,5.0,7.0,37,0.00,,,0.00,0.000000,,2013-09-03 07:52:00,
2013-09-03 02:03:00,62.0,35.0,-100.00,WNW,286,5.0,7.0,37,0.00,,,0.00,0.000000,,2013-09-03 08:03:00,
2013-09-03 02:11:00,62.0,35.0,-100.00,WNW,286,5.0,7.0,37,0.00,,,0.00,0.000000,,2013-09-03 08:11:00,
2013-09-03 02:22:00,62.0,35.0,-100.00,WNW,286,5.0,7.0,37,0.00,,,0.00,0.000000,,2013-09-03 08:22:00,
2013-09-03 02:30:00,60.0,38.0,-100.00,West,262,4.0,6.0,44,0.00,,,0.00,0.000000,,2013-09-03 08:30:00,
2013-09-03 02:52:00,60.0,38.0,-100.00,West,262,4.0,6.0,44,0.00,,,0.00,0.000000,,2013-09-03 08:52:00,
2013-09-03 03:01:00,60.0,38.0,-100.00,West,262,4.0,6.0,44,0.00,,,0.00,0.000000,,2013-09-03 09:01:00,
2013-09-03 03:11:00,60.0,38.0,-100.00,West,262,4.0,6.0,44,0.00,,,0.00,0.000000,,2013-09-03 09:11:00,
2013-09-03 03:21:00,60.0,38.0,-100.00,West,262,4.0,6.0,44,0.00,,,0.00,0.000000,,2013-09-03 09:21:00,
2013-09-03 03:30:00,56.0,37.0,-100.00,NE,46,2.0,5.0,49,0.00,,,0.00,0.000000,,2013-09-03 09:30:00,
2013-09-03 03:53:00,56.0,37.0,-100.00,NE,46,2.0,5.0,49,0.00,,,0.00,0.000000,,2013-09-03 09:53:00,
2013-09-03 04:03:00,56.0,37.0,-100.00,NE,46,2.0,5.0,49,0.00,,,0.00,0.000000,,2013-09-03 10:03:00,
2013-09-03 04:12:00,56.0,37.0,-100.00,NE,46,2.0,5.0,49,0.00,,,0.00,0.000000,,2013-09-03 10:12:00,
2013-09-03 04:23:00,56.0,37.0,-100.00,NE,46,2.0,5.0,49,0.00,,,0.00,0.000000,,2013-09-03 10:23:00,
2013-09-03 04:30:00,59.0,38.0,-100.00,SW,235,6.0,8.0,46,0.00,,,0.00,0.000000,,2013-09-03 10:30:00,
2013-09-03 04:53:00,59.0,38.0,-100.00,SW,235,6.0,8.0,46,0.00,,,0.00,0.000000,,2013-09-03 10:53:00,
2013-09-03 05:02:00,59.0,38.0,-100.00,SW,235,6.0,8.0,46,0.00,,,0.00,0.000000,,2013-09-03 11:02:00,
2013-09-03 05:12:00,59.0,38.0,-100.00,SW,235,6.0,8.0,46,0.00,,,0.00,0.000000,,2013-09-03 11:12:00,
2013-09-03 05:22:00,59.0,38.0,-100.00,SW,235,6.0,8.0,46,0.00,,,0.00,0.000000,,2013-09-03 11:22:00,
2013-09-03 05:30:00,55.0,37.0,-100.00,East,90,1.0,6.0,51,0.00,,,0.00,0.000000,,2013-09-03 11:30:00,
2013-09-03 05:52:00,55.0,37.0,-100.00,East,90,1.0,6.0,51,0.00,,,0.00,0.000000,,2013-09-03 11:52:00,
2013-09-03 06:02:00,55.0,37.0,-100.00,East,90,1.0,6.0,51,0.00,,,0.00,0.000000,,2013-09-03 12:02:00,
2013-09-03 06:12:00,55.0,37.0,-100.00,East,90,1.0,6.0,51,0.00,,,0.00,0.000000,,2013-09-03 12:12:00,
2013-09-03 06:21:00,55.0,37.0,-100.00,East,90,1.0,6.0,51,0.00,,,0.00,0.000000,,2013-09-03 12:21:00,
2013-09-03 06:30:00,57.0,38.0,-100.00,WSW,243,5.0,9.0,48,0.00,,,0.00,0.000000,,2013-09-03 12:30:00,
2013-09-03 06:52:00,57.0,38.0,-100.00,WSW,243,5.0,9.0,48,0.00,,,0.00,0.000000,,2013-09-03 12:52:00,
2013-09-03 07:02:00,57.0,38.0,-100.00,WSW,243,5.0,9.0,48,0.00,,,0.00,0.000000,,2013-09-03 13:02:00,
2013-09-03 07:11:00,57.0,38.0,-100.00,WSW,243,5.0,9.0,48,0.00,,,0.00,0.000000,,2013-09-03 13:11:00,
2013-09-03 07:21:00,57.0,38.0,-100.00,WSW,243,5.0,9.0,48,0.00,,,0.00,0.000000,,2013-09-03 13:21:00,
2013-09-03 07:30:00,54.0,38.0,-100.00,WNW,289,3.0,6.0,54,0.00,,,0.00,11.000000,,2013-09-03 13:30:00,
2013-09-03 07:52:00,54.0,38.0,-100.00,WNW,289,3.0,6.0,54,0.00,,,0.00,11.000000,,2013-09-03 13:52:00,
2013-09-03 08:01:00,54.0,38.0,-100.00,WNW,289,3.0,6.0,54,0.00,,,0.00,11.000000,,2013-09-03 14:01:00,
2013-09-03 08:11:00,54.0,38.0,-100.00,WNW,289,3.0,6.0,54,0.00,,,0.00,11.000000,,2013-09-03 14:11:00,
2013-09-03 08:21:00,54.0,38.0,-100.00,WNW,289,3.0,6.0,54,0.00,,,0.00,11.000000,,2013-09-03 14:21:00,
2013-09-03 08:30:00,59.0,42.0,-100.00,WSW,242,6.0,9.0,53,0.00,,,0.00,79.000000,,2013-09-03 14:30:00,
2013-09-03 08:52:00,59.0,42.0,-100.00,WSW,242,6.0,9.0,53,0.00,,,0.00,79.000000,,2013-09-03 14:52:00,
2013-09-03 09:02:00,59.0,42.0,-100.00,WSW,242,6.0,9.0,53,0.00,,,0.00,79.000000,,2013-09-03 15:02:00,
2013-09-03 09:22:00,59.0,42.0,-100.00,WSW,242,6.0,9.0,53,0.00,,,0.00,79.000000,,2013-09-03 15:22:00,
2013-09-03 09:30:00,66.0,41.0,-100.00,WSW,240,6.0,8.0,40,0.00,,,0.00,283.000000,,2013-09-03 15:30:00,
2013-09-03 10:14:00,66.0,41.0,-100.00,WSW,240,6.0,8.0,40,0.00,,,0.00,283.000000,,2013-09-03 16:14:00,
2013-09-03 10:24:00,66.0,41.0,-100.00,WSW,240,6.0,8.0,40,0.00,,,0.00,283.000000,,2013-09-03 16:24:00,
2013-09-03 10:30:00,75.0,46.0,-100.00,SW,217,5.0,9.0,36,0.00,,,0.00,460.000000,,2013-09-03 16:30:00,
2013-09-03 11:13:00,75.0,46.0,-100.00,SW,217,5.0,9.0,36,0.00,,,0.00,460.000000,,2013-09-03 17:13:00,
2013-09-03 11:23:00,75.0,46.0,-100.00,SW,217,5.0,9.0,36,0.00,,,0.00,460.000000,,2013-09-03 17:23:00,
2013-09-03 11:30:00,80.0,46.0,-100.00,WSW,244,5.0,8.0,30,0.00,,,-99.99,514.000000,,2013-09-03 17:30:00,
2013-09-03 11:52:00,80.0,46.0,-100.00,WSW,244,5.0,8.0,30,0.00,,,-99.99,514.000000,,2013-09-03 17:52:00,
2013-09-03 12:02:00,80.0,46.0,-100.00,WSW,244,5.0,8.0,30,0.00,,,-99.99,514.000000,,2013-09-03 18:02:00,
2013-09-03 12:12:00,80.0,46.0,-100.00,WSW,244,5.0,8.0,30,0.00,,,-99.99,514.000000,,2013-09-03 18:12:00,
2013-09-03 12:22:00,80.0,46.0,-100.00,WSW,244,5.0,8.0,30,0.00,,,-99.99,514.000000,,2013-09-03 18:22:00,
2013-09-03 12:30:00,84.0,45.0,-100.00,West,267,5.0,8.0,26,0.00,,,0.00,534.000000,,2013-09-03 18:30:00,
2013-09-03 12:52:00,84.0,45.0,-100.00,West,267,5.0,8.0,26,0.00,,,0.00,534.000000,,2013-09-03 18:52:00,
2013-09-03 13:02:00,84.0,45.0,-100.00,West,267,5.0,8.0,26,0.00,,,0.00,534.000000,,2013-09-03 19:02:00,
2013-09-03 13:11:00,84.0,45.0,-100.00,West,267,5.0,8.0,26,0.00,,,0.00,534.000000,,2013-09-03 19:11:00,
2013-09-03 13:22:00,84.0,45.0,-100.00,West,267,5.0,8.0,26,0.00,,,0.00,534.000000,,2013-09-03 19:22:00,
2013-09-03 13:30:00,88.0,46.0,-100.00,North,351,4.0,7.0,23,0.00,,,0.00,489.000000,,2013-09-03 19:30:00,
2013-09-03 13:52:00,88.0,46.0,-100.00,North,351,4.0,7.0,23,0.00,,,0.00,489.000000,,2013-09-03 19:52:00,
2013-09-03 14:02:00,88.0,46.0,-100.00,North,351,4.0,7.0,23,0.00,,,0.00,489.000000,,2013-09-03 20:02:00,
2013-09-03 14:11:00,88.0,46.0,-100.00,North,351,4.0,7.0,23,0.00,,,0.00,489.000000,,2013-09-03 20:11:00,
2013-09-03 14:22:00,88.0,46.0,-100.00,North,351,4.0,7.0,23,0.00,,,0.00,489.000000,,2013-09-03 20:22:00,
2013-09-03 14:30:00,92.0,45.0,-100.00,ESE,107,5.0,8.0,20,0.00,,,0.00,903.000000,,2013-09-03 20:30:00,
2013-09-03 14:52:00,92.0,45.0,-100.00,ESE,107,5.0,8.0,20,0.00,,,0.00,903.000000,,2013-09-03 20:52:00,
2013-09-03 15:01:00,92.0,45.0,-100.00,ESE,107,5.0,8.0,20,0.00,,,0.00,903.000000,,2013-09-03 21:01:00,
2013-09-03 15:12:00,92.0,45.0,-100.00,ESE,107,5.0,8.0,20,0.00,,,0.00,903.000000,,2013-09-03 21:12:00,
2013-09-03 15:22:00,92.0,45.0,-100.00,ESE,107,5.0,8.0,20,0.00,,,0.00,903.000000,,2013-09-03 21:22:00,
2013-09-03 15:30:00,93.0,45.0,-100.00,ESE,104,9.0,14.0,19,0.00,,,0.00,868.000000,,2013-09-03 21:30:00,
2013-09-03 15:54:00,93.0,45.0,-100.00,ESE,104,9.0,14.0,19,0.00,,,0.00,868.000000,,2013-09-03 21:54:00,
2013-09-03 16:04:00,93.0,45.0,-100.00,ESE,104,9.0,14.0,19,0.00,,,0.00,868.000000,,2013-09-03 22:04:00,
2013-09-03 16:13:00,93.0,45.0,-100.00,ESE,104,9.0,14.0,19,0.00,,,0.00,868.000000,,2013-09-03 22:13:00,
2013-09-03 16:23:00,93.0,45.0,-100.00,ESE,104,9.0,14.0,19,0.00,,,0.00,868.000000,,2013-09-03 22:23:00,
2013-09-03 16:30:00,88.0,41.0,-100.00,East,85,10.0,16.0,19,0.00,,,0.00,430.000000,,2013-09-03 22:30:00,
2013-09-03 17:12:00,88.0,41.0,-100.00,East,85,10.0,16.0,19,0.00,,,0.00,430.000000,,2013-09-03 23:12:00,
2013-09-03 17:22:00,88.0,41.0,-100.00,East,85,10.0,16.0,19,0.00,,,0.00,430.000000,,2013-09-03 23:22:00,
2013-09-03 17:30:00,87.0,41.0,-100.00,ENE,78,7.0,12.0,20,0.00,,,0.00,174.000000,,2013-09-03 23:30:00,
2013-09-03 17:53:00,87.0,41.0,-100.00,ENE,78,7.0,12.0,20,0.00,,,0.00,174.000000,,2013-09-03 23:53:00,
2013-09-03 18:02:00,87.0,41.0,-100.00,ENE,78,7.0,12.0,20,0.00,,,0.00,174.000000,,2013-09-04 00:02:00,
2013-09-03 18:11:00,87.0,41.0,-100.00,ENE,78,7.0,12.0,20,0.00,,,0.00,174.000000,,2013-09-04 00:11:00,
2013-09-03 18:22:00,87.0,41.0,-100.00,ENE,78,7.0,12.0,20,0.00,,,0.00,174.000000,,2013-09-04 00:22:00,
2013-09-03 18:30:00,86.0,41.0,-100.00,ENE,60,9.0,16.0,21,0.00,,,0.00,71.000000,,2013-09-04 00:30:00,
2013-09-03 18:52:00,86.0,41.0,-100.00,ENE,60,9.0,16.0,21,0.00,,,0.00,71.000000,,2013-09-04 00:52:00,
2013-09-03 19:01:00,86.0,41.0,-100.00,ENE,60,9.0,16.0,21,0.00,,,0.00,71.000000,,2013-09-04 01:01:00,
2013-09-03 19:11:00,86.0,41.0,-100.00,ENE,60,9.0,16.0,21,0.00,,,0.00,71.000000,,2013-09-04 01:11:00,
2013-09-03 19:21:00,86.0,41.0,-100.00,ENE,60,9.0,16.0,21,0.00,,,0.00,71.000000,,2013-09-04 01:21:00,
2013-09-03 19:30:00,83.0,42.0,-100.00,ENE,70,4.0,13.0,24,0.00,,,-99.99,28.000000,,2013-09-04 01:30:00,
2013-09-03 19:53:00,83.0,42.0,-100.00,ENE,70,4.0,13.0,24,0.00,,,-99.99,28.000000,,2013-09-04 01:53:00,
2013-09-03 20:02:00,83.0,42.0,-100.00,ENE,70,4.0,13.0,24,0.00,,,-99.99,28.000000,,2013-09-04 02:02:00,
2013-09-03 20:11:00,83.0,42.0,-100.00,ENE,70,4.0,13.0,24,0.00,,,-99.99,28.000000,,2013-09-04 02:11:00,
2013-09-03 20:22:00,83.0,42.0,-100.00,ENE,70,4.0,13.0,24,0.00,,,-99.99,28.000000,,2013-09-04 02:22:00,
2013-09-03 20:30:00,80.0,43.0,-100.00,NNW,332,8.0,14.0,27,0.00,,,0.00,3.000000,,2013-09-04 02:30:00,
2013-09-03 20:52:00,80.0,43.0,-100.00,NNW,332,8.0,14.0,27,0.00,,,0.00,3.000000,,2013-09-04 02:52:00,
2013-09-03 21:03:00,80.0,43.0,-100.00,NNW,332,8.0,14.0,27,0.00,,,0.00,3.000000,,2013-09-04 03:03:00,
2013-09-03 21:11:00,80.0,43.0,-100.00,NNW,332,8.0,14.0,27,0.00,,,0.00,3.000000,,2013-09-04 03:11:00,
2013-09-03 21:22:00,80.0,43.0,-100.00,NNW,332,8.0,14.0,27,0.00,,,0.00,3.000000,,2013-09-04 03:22:00,
2013-09-03 21:30:00,78.0,45.0,-100.00,WNW,303,5.0,10.0,31,0.00,,,0.00,0.000000,,2013-09-04 03:30:00,
2013-09-03 21:54:00,78.0,45.0,-100.00,WNW,303,5.0,10.0,31,0.00,,,0.00,0.000000,,2013-09-04 03:54:00,
2013-09-03 22:04:00,78.0,45.0,-100.00,WNW,303,5.0,10.0,31,0.00,,,0.00,0.000000,,2013-09-04 04:04:00,
2013-09-03 22:14:00,78.0,45.0,-100.00,WNW,303,5.0,10.0,31,0.00,,,0.00,0.000000,,2013-09-04 04:14:00,
2013-09-03 22:24:00,78.0,45.0,-100.00,WNW,303,5.0,10.0,31,0.00,,,0.00,0.000000,,2013-09-04 04:24:00,
2013-09-03 22:30:00,76.0,45.0,-100.00,WNW,290,5.0,10.0,33,0.00,,,0.00,0.000000,,2013-09-04 04:30:00,
2013-09-03 22:54:00,76.0,45.0,-100.00,WNW,290,5.0,10.0,33,0.00,,,0.00,0.000000,,2013-09-04 04:54:00,
2013-09-03 23:03:00,76.0,45.0,-100.00,WNW,290,5.0,10.0,33,0.00,,,0.00,0.000000,,2013-09-04 05:03:00,
2013-09-03 23:12:00,76.0,45.0,-100.00,WNW,290,5.0,10.0,33,0.00,,,0.00,0.000000,,2013-09-04 05:12:00,
2013-09-03 23:23:00,76.0,45.0,-100.00,WNW,290,5.0,10.0,33,0.00,,,0.00,0.000000,,2013-09-04 05:23:00,
2013-09-03 23:30:00,73.0,44.0,-100.00,WNW,291,3.0,7.0,35,0.00,,,0.00,0.000000,,2013-09-04 05:30:00,
2013-09-03 23:53:00,73.0,44.0,-100.00,WNW,291,3.0,7.0,35,0.00,,,0.00,0.000000,,2013-09-04 05:53:00,